• Join FlightAware (Why Join?)
  • Login
  • US Flag 
08:01PM EDT


 

Airport Tracker/Info


-or-


 

Live Flight TrackerFlight Track Log ✈ N836EA ✈ 23-Aug-2013 ✈ KMGM - KDWH

Flight Track Log - Related Links

Times and Time Zones

All times are in EDT time to prevent confusion due to time zone crossing. See the N836EA flight status page for this flight to view local times or setup timezone preferences in your user account.

Time Position Orientation Groundspeed Altitude Reporting Facility
EDT Latitude Longitude Course Direction KTS MPH feet Rate Location/Type
08:10PM 32.2328 -86.4256 254° West 160 184 5,200  Level Atlanta Center
08:11PM 32.2214 -86.4817 257° West 171 197 7,200 1,920 Climbing Atlanta Center
08:12PM 32.2097 -86.5403 257° West 183 211 9,100 1,920 Climbing Atlanta Center
08:13PM 32.1961 -86.5989 255° West 183 211 11,100 1,860 Climbing Atlanta Center
08:15PM 32.1904 -86.8883 254° West  Level FlightAware Approximate
08:15PM 32.1725 -86.7233 257° West 190 219 14,800  Level Atlanta Center
08:16PM 32.1696 -86.9717 254° West  Level FlightAware Approximate
08:16PM 32.1606 -86.7917 258° West 195 224 16,200  Level Atlanta Center
08:17PM 32.1467 -86.8525 255° West 207 238 18,300 1,800 Climbing Atlanta Center
08:18PM 32.1325 -86.9183 256° West 207 238 19,900 1,560 Climbing Atlanta Center
08:19PM 32.1183 -86.9889 257° West 213 245 21,400 1,440 Climbing Atlanta Center
08:20PM 32.1064 -87.0572 258° West 218 251 22,800 1,260 Climbing Atlanta Center
08:21PM 32.0919 -87.1278 256° West 218 251 24,000 1,200 Climbing Atlanta Center
08:22PM 32.0756 -87.2008 255° West 223 257 25,300 960 Climbing Atlanta Center
08:23PM 32.0611 -87.2761 257° West 223 257 26,000 300 Climbing Atlanta Center
08:24PM 32.0442 -87.3614 257° West 248 285 26,000  Level Atlanta Center
08:25PM 32.0231 -87.4536 255° West 275 316 26,000  Level Atlanta Center
08:26PM 32.0036 -87.5508 257° West 299 344 26,000  Level Atlanta Center
08:27PM 31.9858 -87.6603 259° West 310 357 26,000  Level Atlanta Center
08:28PM 31.9661 -87.7575 257° West 316 364 26,000  Level Atlanta Center
08:29PM 31.9422 -87.8544 254° West 316 364 26,000  Level Atlanta Center
08:30PM 31.9247 -87.9514 258° West 316 364 26,000  Level Atlanta Center
08:32PM 31.8894 -88.1042 255° West 301 346 26,000  Level Memphis Center
08:33PM 31.8683 -88.2047 256° West 306 352 26,000  Level Memphis Center
08:34PM 31.8492 -88.3006 257° West 306 352 26,000  Level Memphis Center
08:35PM 31.8256 -88.3989 254° West 306 352 26,000  Level Memphis Center
08:36PM 31.8042 -88.4972 256° West 306 352 26,000  Level Memphis Center
08:37PM 31.7847 -88.5953 257° West 306 352 26,000  Level Memphis Center
08:38PM 31.7608 -88.6911 254° West 311 358 26,000  Level Memphis Center
08:39PM 31.7392 -88.7892 255° West 311 358 26,000  Level Memphis Center
08:40PM 31.7294 -88.8403 257° West 310 357 26,000  Level Houston Center
08:41PM 31.7097 -88.9375 257° West 309 356 26,000  Level Houston Center
08:42PM 31.6875 -89.0353 255° West 312 359 26,000  Level Houston Center
08:43PM 31.6661 -89.1333 256° West 312 359 26,000  Level Houston Center
08:44PM 31.6447 -89.2303 255° West 310 357 26,000  Level Houston Center
08:45PM 31.6192 -89.3478 256° West 311 358 26,000  Level Houston Center
08:46PM 31.5958 -89.4450 254° West 312 359 26,000  Level Houston Center
08:47PM 31.5753 -89.5433 256° West 312 359 26,000  Level Houston Center
08:48PM 31.5539 -89.6331 254° West 312 359 26,000  Level Houston Center
08:49PM 31.5275 -89.7511 255° West 310 357 26,000  Level Houston Center
08:50PM 31.5050 -89.8489 255° West 310 357 26,000  Level Houston Center
08:51PM 31.4833 -89.9467 255° West 309 356 26,000  Level Houston Center
08:52PM 31.4617 -90.0450 256° West 312 359 26,000  Level Houston Center
08:53PM 31.4394 -90.1419 255° West 309 356 26,000  Level Houston Center
08:54PM 31.4161 -90.2394 254° West 311 358 26,000  Level Houston Center
08:55PM 31.3933 -90.3389 255° West 316 364 26,000  Level Houston Center
08:56PM 31.3650 -90.4569 254° West 316 364 26,000  Level Houston Center
08:57PM 31.3436 -90.5550 256° West 315 362 26,000  Level Houston Center
08:58PM 31.3189 -90.6536 254° West 315 362 26,000  Level Houston Center
08:59PM 31.2967 -90.7522 255° West 316 364 26,000  Level Houston Center
09:00PM 31.2733 -90.8503 254° West 316 364 26,000  Level Houston Center
09:01PM 31.2500 -90.9478 254° West 314 361 26,000  Level Houston Center
09:02PM 31.2264 -91.0461 254° West 315 362 26,000  Level Houston Center
09:03PM 31.2003 -91.1631 255° West 312 359 26,000  Level Houston Center
09:04PM 31.1783 -91.2625 256° West 313 360 26,000  Level Houston Center
09:05PM 31.1594 -91.3606 257° West 314 361 26,000  Level Houston Center
09:06PM 31.1403 -91.4608 257° West 313 360 26,000  Level Houston Center
09:07PM 31.1203 -91.5589 257° West 312 359 26,000  Level Houston Center
09:08PM 31.1008 -91.6583 257° West 314 361 26,000  Level Houston Center
09:09PM 31.0806 -91.7583 257° West 316 364 26,000  Level Houston Center
09:10PM 31.0603 -91.8581 257° West 317 365 26,000  Level Houston Center
09:11PM 31.0397 -91.9581 257° West 316 364 26,000  Level Houston Center
09:12PM 31.0189 -92.0617 257° West 314 361 26,000  Level Houston Center
09:13PM 30.9953 -92.1781 257° West 318 366 26,000  Level Houston Center
09:14PM 30.9744 -92.2769 256° West 315 362 26,000  Level Houston Center
09:16PM 30.9544 -92.3758 257° West 312 359 26,000  Level Houston Center
09:17PM 30.9336 -92.4753 256° West 313 360 26,000  Level Houston Center
09:18PM 30.9139 -92.5744 257° West 313 360 26,000  Level Houston Center
09:19PM 30.8931 -92.6731 256° West 313 360 26,000  Level Houston Center
09:20PM 30.8728 -92.7719 257° West 313 360 26,000  Level Houston Center
09:21PM 30.8525 -92.8706 257° West 313 360 26,000  Level Houston Center
09:22PM 30.8328 -92.9658 256° West 311 358 26,000  Level Houston Center
09:23PM 30.8122 -93.0636 256° West 311 358 26,000  Level Houston Center
09:24PM 30.7925 -93.1600 257° West 310 357 26,000  Level Houston Center
09:25PM 30.7678 -93.2758 256° West 309 356 26,000  Level Houston Center
09:26PM 30.7472 -93.3725 256° West 310 357 26,000  Level Houston Center
09:27PM 30.7269 -93.4703 256° West 313 360 26,000 -120 Level Houston Center
09:28PM 30.7067 -93.5647 256° West 309 356 25,800 -960 Descending Houston Center
09:29PM 30.6867 -93.6581 256° West 303 349 24,100 -1,800 Descending Houston Center
09:30PM 30.6642 -93.7564 255° West 312 359 22,200 -1,920 Descending Houston Center
09:31PM 30.6428 -93.8564 256° West 320 368 20,200 -1,980 Descending Houston Center
09:32PM 30.6219 -93.9539 256° West 315 362 18,200 -2,040 Descending Houston Center
09:33PM 30.6000 -94.0497 255° West 311 358 16,200 -2,100 Descending Houston Center
09:34PM 30.5758 -94.1631 256° West 303 349 13,900 -2,100 Descending Houston Center
09:35PM 30.5550 -94.2550 255° West 296 341 11,900 -1,920 Descending Houston Center
09:36PM 30.5336 -94.3453 255° West 292 336 10,000 -960 Descending Houston Center
09:37PM 30.5158 -94.4261 256° West 261 300 10,000  Level Houston Center
09:38PM 30.4983 -94.4983 254° West 237 273 10,000  Level Houston Center
09:39PM 30.4792 -94.5808 255° West 233 268 10,000  Level Houston Center
09:40PM 30.4631 -94.6508 255° West 226 260 10,000  Level Houston Center
09:41PM 30.4447 -94.7239 254° West 234 269 10,000  Level Houston Center
09:42PM 30.4278 -94.7992 255° West 237 273 10,000 -360 Level Houston Center
09:43PM 30.4097 -94.8744 254° West 241 277 9,300 -840 Descending Houston Center
09:44PM 30.3911 -94.9558 255° West 256 295 8,300 -1,020 Descending Houston Center
09:45PM 30.3708 -95.0389 254° West 265 305 7,300 -1,020 Descending Houston Center
09:46PM 30.3519 -95.1186 255° West 261 300 6,300 -1,080 Descending Houston Center
09:47PM 30.3403 -95.1669 254° West 255 293 5,700 -1,080 Descending Houston Center
09:47PM 30.3250 -95.2294 254° West 254 292 4,900 -900 Descending Houston Center
09:48PM 30.3142 -95.2747 255° West 253 291 4,400 -1,020 Descending Houston Center
09:49PM 30.3022 -95.3242 254° West 245 282 3,700 -1,020 Descending Houston Center
09:49PM 30.2969 -95.3486 256° West 244 281 3,400 -900 Descending Houston Center
09:50PM 30.2800 -95.4200 255° West 235 270 2,400 -720 Descending Houston Center
09:51PM 30.2631 -95.4894 254° West 229 264 2,000 -180 Descending Houston Center
09:52PM 30.2561 -95.5522 263° West 211 243 2,100  Climbing Houston Center
09:53PM 30.2094 -95.5753 203° Southwest 177 204 2,000 -60 Descending Houston Center
09:54PM 30.1678 -95.5689 172° South 161 185 2,000 -300 Level Houston Center
09:55PM 30.1375 -95.5647 173° South 132 152 1,400 -540 Descending Houston Center
09:56PM 30.1144 -95.5614 173° South 100 115 1,000 -300 Descending Houston Center
09:57PM 30.0914 -95.5561 169° South 96 110 800 -240 Descending Houston Center
09:59PM 30.0618 -95.5528 208° Southwest  Level Estimated